Time;durP1;ratioP1;P1;durP2;ratioP2;P2;SDS_P1;SDS_P2;PMS_P1;PMS_P2;Temp;Humidity;BMP_temperature;BMP_pressure;BME280_temperature;BME280_humidity;BME280_pressure;Samples;Min_cycle;Max_cycle;Signal;HPM_P1;HPM_P2
2021/01/13 00:00:28;;;;;;;;;9.75;9.50;19.60;78.30;;;18.60;59.23;102470.91;5071282;28;8797;-54
2021/01/13 00:02:55;;;;;;;;;11.00;11.00;19.40;78.30;;;18.57;59.13;102477.31;5072765;28;8902;-55
2021/01/13 00:05:22;;;;;;;;;9.75;8.25;19.60;78.40;;;18.58;59.02;102478.19;5088963;28;8973;-54
2021/01/13 00:07:52;;;;;;;;;15.50;13.00;19.60;78.20;;;18.56;59.27;102466.72;5099800;28;9024;-54
2021/01/13 00:10:20;;;;;;;;;13.75;11.50;19.60;78.30;;;18.56;59.13;102470.25;5082374;28;8848;-55
2021/01/13 00:12:47;;;;;;;;;11.25;11.25;19.50;78.20;;;18.56;59.04;102466.72;5087437;28;8800;-54
2021/01/13 00:15:15;;;;;;;;;12.75;11.50;19.50;78.20;;;18.54;59.01;102465.97;5092932;28;8796;-52
2021/01/13 00:17:48;;;;;;;;;12.25;11.25;19.60;78.20;;;18.53;58.88;102461.59;5077259;28;8800;-53
2021/01/13 00:20:15;;;;;;;;;8.50;7.75;19.50;78.20;;;18.53;59.30;102465.13;5098515;28;8765;-53
2021/01/13 00:22:46;;;;;;;;;9.00;9.00;19.50;78.30;;;18.53;58.87;102470.47;5086427;28;8839;-53
2021/01/13 00:25:17;;;;;;;;;11.00;11.00;19.50;78.20;;;18.50;59.15;102461.81;5088556;28;8815;-55
2021/01/13 00:27:46;;;;;;;;;11.25;10.50;19.50;78.60;;;18.51;59.00;102475.06;5088914;28;9600;-53
2021/01/13 00:30:14;;;;;;;;;10.50;8.00;19.60;78.30;;;18.51;59.22;102482.25;5091466;28;8787;-52
2021/01/13 00:32:41;;;;;;;;;5.00;4.75;19.80;78.30;;;18.51;60.08;102477.75;5085499;28;8862;-58
2021/01/13 00:35:09;;;;;;;;;11.00;9.50;19.50;79.00;;;18.53;61.42;102488.38;5085389;28;8822;-48
2021/01/13 00:37:37;;;;;;;;;15.50;12.50;19.50;80.30;;;18.53;61.90;102480.34;5085195;28;8956;-50
2021/01/13 00:40:10;;;;;;;;;13.50;12.25;19.50;80.80;;;18.54;61.40;102484.72;5089542;28;8879;-53
2021/01/13 00:42:49;;;;;;;;;11.25;10.75;19.70;80.00;;;18.52;62.08;102478.59;5091425;28;8801;-52
2021/01/13 00:45:18;;;;;;;;;10.75;10.00;19.40;80.30;;;18.54;62.51;102487.38;5092644;28;8780;-52
2021/01/13 00:47:49;;;;;;;;;10.75;10.00;19.60;81.30;;;18.53;62.77;102493.72;5084432;28;8841;-52
2021/01/13 00:50:16;;;;;;;;;11.75;11.25;19.60;80.70;;;18.51;62.70;102493.81;5093023;28;9528;-52
2021/01/13 00:52:50;;;;;;;;;11.50;10.50;19.80;81.10;;;18.50;62.36;102491.25;5089896;28;8828;-50
2021/01/13 00:55:18;;;;;;;;;13.75;12.25;19.70;80.60;;;18.51;62.71;102492.97;5091821;28;8853;-50
2021/01/13 00:57:53;;;;;;;;;12.25;11.50;19.60;80.80;;;18.49;62.88;102494.88;5088084;28;8812;-53
2021/01/13 01:00:21;;;;;;;;;9.00;9.00;19.60;81.30;;;18.50;63.02;102510.00;5091058;28;8880;-50
2021/01/13 01:02:48;;;;;;;;;10.50;9.50;19.40;81.40;;;18.48;62.96;102509.25;5093093;28;8791;-50
2021/01/13 01:05:15;;;;;;;;;12.75;11.50;19.60;81.60;;;18.48;63.17;102503.91;5083732;28;8788;-52
2021/01/13 01:07:43;;;;;;;;;12.25;11.25;19.50;81.80;;;18.47;63.61;102508.41;5095356;28;8900;-52
2021/01/13 01:10:26;;;;;;;;;8.50;7.75;19.60;81.60;;;18.47;62.95;102518.22;5074202;28;8795;-52
2021/01/13 01:12:52;;;;;;;;;11.00;11.00;19.60;81.40;;;18.47;63.56;102519.09;5086346;28;8851;-49
2021/01/13 01:15:19;;;;;;;;;10.50;10.50;19.40;81.10;;;18.44;63.55;102517.50;5088271;28;8886;-52
2021/01/13 01:17:46;;;;;;;;;11.00;11.00;19.50;81.90;;;18.46;63.70;102533.44;5080694;28;8791;-50
2021/01/13 01:20:14;;;;;;;;;10.75;9.50;19.40;82.20;;;18.43;63.84;102539.84;5085598;28;8788;-49
2021/01/13 01:23:01;;;;;;;;;10.25;10.25;19.50;82.30;;;18.44;63.84;102546.06;5082347;28;8776;-50
2021/01/13 01:25:30;;;;;;;;;10.25;10.25;19.40;82.20;;;18.42;63.95;102556.91;5084720;28;8880;-48
2021/01/13 01:28:00;;;;;;;;;14.25;12.25;19.50;82.40;;;18.43;63.65;102553.25;5082528;28;8811;-50
2021/01/13 01:30:29;;;;;;;;;13.50;12.00;19.50;82.30;;;18.41;63.89;102552.50;5086742;28;8826;-51
2021/01/13 01:32:56;;;;;;;;;10.50;9.50;19.60;82.50;;;18.41;63.99;102546.28;5082559;28;8821;-48
2021/01/13 01:35:23;;;;;;;;;11.50;10.50;19.50;82.10;;;18.40;63.72;102539.22;5079773;28;8977;-52
2021/01/13 01:37:50;;;;;;;;;9.75;9.75;19.40;82.10;;;18.40;64.07;102550.78;5089090;28;8865;-53
2021/01/13 01:40:18;;;;;;;;;11.50;10.75;19.50;82.30;;;18.41;63.83;102551.63;5084802;28;8792;-50
2021/01/13 01:42:49;;;;;;;;;10.75;10.00;19.80;82.20;;;18.40;63.90;102547.25;5079598;28;8924;-49
2021/01/13 01:45:29;;;;;;;;;9.00;9.00;19.50;82.30;;;18.39;63.79;102545.53;5092170;28;8869;-51
2021/01/13 01:48:23;;;;;;;;;12.00;11.00;19.50;82.30;;;18.37;63.56;102542.97;5082237;28;8812;-50
2021/01/13 01:50:51;;;;;;;;;8.50;8.25;19.60;81.70;;;18.36;63.24;102541.25;5069983;28;8809;-52
2021/01/13 01:53:37;;;;;;;;;9.25;9.25;19.50;81.70;;;18.37;63.29;102548.34;5089279;28;8848;-50
2021/01/13 01:56:35;;;;;;;;;8.75;8.50;19.60;81.70;;;18.36;63.17;102553.78;5097347;28;8817;-52
2021/01/13 01:59:09;;;;;;;;;8.50;8.00;19.50;81.40;;;18.34;63.13;102559.25;5083702;28;8878;-49
2021/01/13 02:01:49;;;;;;;;;12.00;11.25;19.50;81.20;;;18.32;62.48;102573.69;5086882;28;8767;-51
2021/01/13 02:04:31;;;;;;;;;10.75;9.75;19.60;81.20;;;18.32;62.74;102584.38;5082045;28;8931;-47
2021/01/13 02:06:58;;;;;;;;;10.25;10.00;19.40;81.60;;;18.33;62.82;102584.28;5093207;28;8907;-50
2021/01/13 02:09:30;;;;;;;;;9.25;8.50;19.40;81.30;;;18.39;62.56;102591.03;5082795;28;8840;-52
2021/01/13 02:11:58;;;;;;;;;10.50;9.25;19.60;80.90;;;18.47;62.56;102590.47;5082742;28;8772;-53
2021/01/13 02:14:27;;;;;;;;;7.25;7.25;19.80;80.70;;;18.51;62.53;102584.81;5080889;28;8805;-49
2021/01/13 02:16:58;;;;;;;;;5.75;5.75;19.90;80.30;;;18.58;62.41;102574.53;5085437;28;9494;-50
2021/01/13 02:19:50;;;;;;;;;6.00;5.50;20.20;80.10;;;18.67;62.23;102584.56;5085948;28;8802;-51
2021/01/13 02:22:25;;;;;;;;;7.25;7.25;20.20;79.80;;;18.73;62.17;102580.59;5088758;28;8778;-51
2021/01/13 02:25:49;;;;;;;;;4.25;4.00;20.30;79.30;;;18.73;61.89;102594.00;5066477;28;8792;-53
2021/01/13 02:28:23;;;;;;;;;3.00;3.00;20.40;79.10;;;18.74;61.94;102582.31;5104808;28;8786;-51
2021/01/13 02:31:05;;;;;;;;;5.00;5.00;20.00;79.20;;;18.73;61.56;102589.50;5084554;28;8784;-47
2021/01/13 02:33:48;;;;;;;;;7.25;7.25;19.90;79.30;;;18.72;62.10;102589.59;5080963;28;8976;-52
2021/01/13 02:36:20;;;;;;;;;5.75;5.50;19.90;80.00;;;18.72;61.99;102593.13;5061983;28;8883;-51
2021/01/13 02:38:53;;;;;;;;;3.25;2.50;20.00;80.30;;;18.79;61.90;102597.09;5090960;28;8876;-52
2021/01/13 02:41:31;;;;;;;;;5.00;5.00;20.10;80.00;;;18.81;61.94;102597.84;5085125;28;8813;-51
2021/01/13 02:44:02;;;;;;;;;5.75;5.75;20.20;79.60;;;18.83;61.75;102595.91;5101881;28;8827;-52
2021/01/13 02:46:59;;;;;;;;;4.75;4.50;20.40;79.50;;;18.83;61.72;102601.28;5086396;28;8996;-50
2021/01/13 02:49:39;;;;;;;;;6.00;4.25;20.20;79.50;;;18.81;61.53;102603.19;5085051;28;8786;-53
2021/01/13 02:52:20;;;;;;;;;7.00;6.50;20.00;79.60;;;18.83;61.76;102617.34;5059804;28;8790;-52
2021/01/13 02:55:01;;;;;;;;;4.50;4.50;20.10;80.10;;;18.91;61.38;102621.28;5097083;28;8791;-50
2021/01/13 02:57:29;;;;;;;;;5.50;4.25;20.00;79.70;;;18.90;61.46;102625.78;5080077;28;8784;-51
2021/01/13 02:59:58;;;;;;;;;6.50;6.50;20.10;79.40;;;18.91;61.29;102629.34;5063166;28;9519;-52
2021/01/13 03:02:40;;;;;;;;;3.00;3.00;20.40;79.50;;;18.90;61.36;102630.28;5086585;28;8791;-48
2021/01/13 03:05:08;;;;;;;;;5.75;5.75;20.00;80.10;;;18.89;61.14;102623.22;5089535;28;8810;-51
2021/01/13 03:07:39;;;;;;;;;6.25;6.25;20.10;79.70;;;18.91;61.95;102629.34;5081133;28;8892;-50
2021/01/13 03:10:17;;;;;;;;;5.25;5.00;20.10;80.90;;;18.95;61.48;102637.00;5079859;28;8908;-52
2021/01/13 03:12:47;;;;;;;;;6.00;6.00;20.10;80.00;;;18.95;61.18;102636.16;5086911;28;8848;-51
2021/01/13 03:15:18;;;;;;;;;9.50;8.25;20.30;79.60;;;18.95;61.21;102636.16;5071373;28;8788;-50
2021/01/13 03:18:04;;;;;;;;;8.00;8.00;20.10;79.40;;;18.94;60.95;102632.63;5084910;28;8918;-52
2021/01/13 03:21:08;;;;;;;;;9.50;7.75;20.20;79.40;;;18.93;60.94;102628.25;5093496;28;8800;-52
2021/01/13 03:24:13;;;;;;;;;7.25;7.25;20.30;79.40;;;18.92;60.74;102625.69;5090731;28;8831;-50
2021/01/13 03:26:48;;;;;;;;;5.50;5.00;20.10;79.10;;;18.93;60.71;102640.75;5080999;28;8770;-51
2021/01/13 03:29:22;;;;;;;;;5.00;5.00;20.20;79.10;;;18.91;60.55;102637.38;5077869;28;8804;-51
2021/01/13 03:32:13;;;;;;;;;6.75;6.75;20.10;78.90;;;18.89;60.73;102625.91;5071070;28;8818;-48
2021/01/13 03:35:01;;;;;;;;;5.25;4.50;20.10;79.40;;;18.93;61.08;102632.72;5087227;28;9500;-54
2021/01/13 03:37:57;;;;;;;;;5.00;5.00;20.10;79.70;;;18.96;61.32;102632.53;5086736;28;8798;-51
2021/01/13 03:40:31;;;;;;;;;5.50;5.25;20.10;79.60;;;18.95;61.05;102633.47;5081998;28;8882;-50
2021/01/13 03:43:00;;;;;;;;;7.75;7.75;20.20;79.40;;;18.94;61.10;102634.47;5104582;28;8935;-50
2021/01/13 03:45:39;;;;;;;;;6.75;6.75;20.20;79.50;;;18.93;60.88;102630.03;5091514;28;8783;-54
2021/01/13 03:48:45;;;;;;;;;3.75;3.75;20.20;79.10;;;18.93;60.73;102638.97;5085177;28;9492;-51
2021/01/13 03:52:00;;;;;;;;;7.00;7.00;20.00;78.80;;;18.94;60.91;102631.78;5074799;28;9500;-51
2021/01/13 03:54:33;;;;;;;;;6.00;6.00;20.10;79.20;;;18.93;60.96;102627.38;5086733;28;8833;-52
2021/01/13 03:57:09;;;;;;;;;6.50;6.50;20.00;78.80;;;18.92;61.11;102625.69;5068172;28;8750;-49
2021/01/13 03:59:45;;;;;;;;;7.00;7.00;20.10;80.30;;;18.92;61.56;102623.00;5091310;28;8752;-50
2021/01/13 04:02:23;;;;;;;;;11.25;11.25;20.10;80.10;;;18.93;62.27;102620.22;5082142;28;8767;-51
2021/01/13 04:05:29;;;;;;;;;11.75;10.75;20.00;80.60;;;18.92;62.73;102628.34;5083109;28;8853;-49
2021/01/13 04:07:57;;;;;;;;;13.00;12.25;20.10;81.30;;;18.91;63.12;102634.69;5069336;28;8815;-51
2021/01/13 04:10:24;;;;;;;;;14.75;14.75;20.10;81.80;;;18.91;63.45;102645.41;5069518;28;8846;-51
2021/01/13 04:12:51;;;;;;;;;16.00;14.00;20.00;82.20;;;18.90;63.57;102644.50;5087368;28;8810;-49
2021/01/13 04:15:27;;;;;;;;;16.00;14.25;19.80;82.30;;;18.91;64.05;102640.03;5092099;28;8800;-49
2021/01/13 04:17:54;;;;;;;;;17.75;17.00;20.00;82.90;;;18.90;64.18;102643.66;5105658;28;8761;-47
2021/01/13 04:20:21;;;;;;;;;17.00;15.25;20.00;83.20;;;18.89;64.04;102639.28;5098960;28;8863;-51
2021/01/13 04:22:49;;;;;;;;;19.50;17.50;20.00;83.40;;;18.87;64.38;102634.88;5091974;28;9555;-49
2021/01/13 04:25:17;;;;;;;;;15.75;14.25;20.00;83.50;;;18.89;64.50;102648.19;5093838;28;8876;-53
2021/01/13 04:27:44;;;;;;;;;16.00;15.25;20.10;83.60;;;18.89;64.41;102652.69;5095987;28;8764;-53
2021/01/13 04:30:11;;;;;;;;;18.25;17.25;20.00;83.70;;;18.88;64.47;102657.19;5085573;28;8800;-53
2021/01/13 04:32:39;;;;;;;;;13.50;12.50;19.80;83.50;;;18.85;64.46;102652.03;5089301;28;8768;-48
2021/01/13 04:35:07;;;;;;;;;17.75;16.50;20.10;83.40;;;18.86;64.15;102649.25;5092758;28;8833;-49
2021/01/13 04:37:35;;;;;;;;;18.50;17.00;20.00;83.20;;;18.85;64.20;102652.03;5082754;28;8829;-46
2021/01/13 04:40:29;;;;;;;;;14.50;14.50;20.00;83.20;;;18.85;63.94;102652.91;5065851;28;8810;-50
2021/01/13 04:43:06;;;;;;;;;16.00;15.50;20.00;82.90;;;18.85;63.81;102654.69;5072965;28;8787;-50
2021/01/13 04:45:44;;;;;;;;;16.75;15.00;19.90;82.90;;;18.85;63.88;102646.66;5085039;28;8817;-52
2021/01/13 04:48:20;;;;;;;;;14.50;14.25;19.80;82.90;;;18.83;63.93;102649.47;5079552;28;8774;-51
2021/01/13 04:50:50;;;;;;;;;16.75;14.50;19.90;82.80;;;18.83;64.04;102643.28;5077874;28;9485;-50
2021/01/13 04:53:21;;;;;;;;;14.50;14.50;20.10;83.00;;;18.82;63.90;102650.41;5080930;28;8848;-50
2021/01/13 04:55:56;;;;;;;;;16.00;14.00;19.90;82.70;;;18.82;64.06;102652.25;5091572;28;8776;-49
2021/01/13 04:59:25;;;;;;;;;15.00;12.75;19.90;82.80;;;18.83;63.79;102659.34;5077729;28;8782;-49
2021/01/13 05:02:18;;;;;;;;;20.25;16.50;19.70;82.60;;;18.81;63.98;102655.91;5079799;28;8814;-47
2021/01/13 05:05:04;;;;;;;;;18.00;15.50;19.90;82.70;;;18.80;63.83;102651.50;5065609;28;8821;-50
2021/01/13 05:07:39;;;;;;;;;15.00;15.00;20.00;82.70;;;18.80;64.02;102665.75;5085491;28;8793;-51
2021/01/13 05:10:15;;;;;;;;;15.00;14.75;19.70;82.50;;;18.80;63.92;102680.94;5091036;28;8796;-51
2021/01/13 05:12:57;;;;;;;;;15.25;15.00;19.80;82.50;;;18.78;63.82;102674.88;5075621;28;8825;-51
2021/01/13 05:15:30;;;;;;;;;16.50;15.00;19.90;82.60;;;18.78;63.86;102682.91;5078306;28;8794;-52
2021/01/13 05:18:11;;;;;;;;;15.00;15.00;19.90;82.50;;;18.76;63.74;102696.38;5091728;28;8776;-50
2021/01/13 05:21:00;;;;;;;;;20.50;19.50;19.90;83.00;;;18.75;63.77;102694.69;5083282;28;8840;-51
2021/01/13 05:23:30;;;;;;;;;18.75;16.75;19.90;82.50;;;18.76;63.74;102696.38;5086559;28;8807;-52
2021/01/13 05:25:57;;;;;;;;;20.75;16.25;19.90;82.60;;;18.77;63.69;102700.75;5084929;28;8803;-55
2021/01/13 05:28:28;;;;;;;;;19.00;17.75;19.80;82.20;;;18.78;63.96;102715.03;5086803;28;9471;-53
2021/01/13 05:30:58;;;;;;;;;20.25;19.50;19.90;82.40;;;18.78;63.32;102718.56;5086672;28;8918;-59
2021/01/13 05:33:32;;;;;;;;;13.25;11.50;20.00;82.30;;;18.82;63.24;102721.88;5088626;28;8827;-59
2021/01/13 05:36:04;;;;;;;;;20.00;18.25;19.70;81.80;;;18.84;62.89;102715.44;5092726;28;8750;-59
2021/01/13 05:39:03;;;;;;;;;17.00;13.00;20.10;82.00;;;18.87;63.51;102698.31;5103713;28;9523;-58
2021/01/13 05:41:31;;;;;;;;;15.50;15.50;20.00;82.40;;;18.91;63.48;102689.09;5090853;28;8768;-59
2021/01/13 05:43:58;;;;;;;;;13.00;11.25;20.00;82.40;;;18.94;63.17;102714.81;5079063;28;8886;-59
2021/01/13 05:46:33;;;;;;;;;20.25;17.00;19.90;82.30;;;19.00;62.71;102722.38;5086539;28;8770;-58
2021/01/13 05:49:01;;;;;;;;;17.25;16.00;20.10;82.10;;;18.99;62.68;102710.81;5074592;28;8779;-59
2021/01/13 05:51:30;;;;;;;;;20.75;19.25;20.10;81.40;;;19.02;62.52;102724.00;5081705;28;8761;-58
2021/01/13 05:53:58;;;;;;;;;18.00;16.25;20.20;81.30;;;19.05;62.23;102722.91;5087760;28;8814;-59
2021/01/13 05:56:25;;;;;;;;;20.50;18.00;20.40;81.00;;;19.04;62.27;102700.63;5080351;28;8854;-58
2021/01/13 05:59:03;;;;;;;;;19.75;18.75;20.10;81.00;;;19.07;62.41;102721.00;5090607;28;8802;-56
2021/01/13 06:01:57;;;;;;;;;17.50;17.25;20.20;81.10;;;19.09;62.22;102719.06;5086986;28;8839;-57
2021/01/13 06:04:26;;;;;;;;;16.50;15.75;20.30;81.20;;;19.09;62.10;102713.72;5067931;28;8810;-59
2021/01/13 06:07:28;;;;;;;;;15.75;15.00;20.10;81.00;;;19.12;61.90;102705.44;5073483;28;8822;-57
2021/01/13 06:09:58;;;;;;;;;19.50;18.75;20.20;80.90;;;19.13;62.25;102711.66;5070790;28;8834;-57
2021/01/13 06:12:27;;;;;;;;;21.50;21.25;20.30;80.90;;;19.15;61.99;102707.06;5065802;28;8856;-58
2021/01/13 06:14:55;;;;;;;;;19.25;16.50;20.20;80.60;;;19.15;61.65;102707.91;5081341;28;9501;-54
2021/01/13 06:17:30;;;;;;;;;19.25;17.00;20.20;80.50;;;19.18;61.52;102715.72;5078694;28;8809;-54
2021/01/13 06:19:57;;;;;;;;;18.00;17.50;20.20;80.80;;;19.17;61.58;102727.41;5078822;28;8833;-54
2021/01/13 06:22:34;;;;;;;;;19.25;19.00;20.00;80.60;;;19.17;61.32;102726.56;5081792;28;8801;-56
2021/01/13 06:25:05;;;;;;;;;12.25;10.75;20.20;80.40;;;19.17;61.03;102735.44;5075239;28;8800;-52
2021/01/13 06:27:57;;;;;;;;;17.75;17.50;20.20;80.40;;;19.17;60.84;102743.47;5091998;28;8886;-55
2021/01/13 06:30:30;;;;;;;;;20.75;15.25;20.30;80.60;;;19.17;60.93;102740.81;5076900;28;8898;-52
2021/01/13 06:33:21;;;;;;;;;17.00;17.00;20.20;80.30;;;19.19;61.04;102754.09;5086957;28;8807;-54
2021/01/13 06:36:26;;;;;;;;;17.25;16.75;20.10;80.50;;;19.20;60.62;102753.13;5074207;28;8772;-53
2021/01/13 06:39:03;;;;;;;;;14.50;14.50;20.30;80.40;;;19.21;60.77;102765.53;5079993;28;8798;-53
2021/01/13 06:41:42;;;;;;;;;19.00;17.00;20.20;80.30;;;19.20;60.64;102767.38;5085163;28;8792;-54
2021/01/13 06:44:09;;;;;;;;;18.33;17.33;20.00;80.00;;;19.22;60.31;102762.75;5067283;28;8784;-55
2021/01/13 06:46:36;;;;;;;;;17.25;17.25;20.20;80.10;;;19.22;60.38;102752.03;5078072;28;8802;-55
2021/01/13 06:49:17;;;;;;;;;20.50;16.75;20.20;80.00;;;19.21;60.16;102744.97;5082733;28;8804;-54
2021/01/13 06:51:49;;;;;;;;;18.00;16.00;20.20;79.90;;;19.22;60.22;102738.66;5089386;28;8828;-55
2021/01/13 06:54:18;;;;;;;;;17.00;16.00;20.20;80.00;;;19.22;60.04;102741.31;5089548;28;9597;-55
2021/01/13 06:56:57;;;;;;;;;17.00;16.75;20.20;79.90;;;19.22;60.14;102745.84;5097161;28;8868;-54
2021/01/13 06:59:28;;;;;;;;;13.25;13.25;20.20;79.90;;;19.24;60.12;102728.69;5084539;28;8796;-55
2021/01/13 07:02:01;;;;;;;;;14.75;14.00;20.00;79.70;;;19.23;59.79;102726.97;5096267;28;8822;-54
2021/01/13 07:04:28;;;;;;;;;16.75;14.00;20.20;79.90;;;19.24;59.84;102717.13;5095250;28;9554;-55
2021/01/13 07:07:06;;;;;;;;;13.00;13.00;20.10;79.70;;;19.23;59.93;102732.34;5078104;28;8798;-55
2021/01/13 07:09:37;;;;;;;;;14.00;13.75;20.20;79.80;;;19.24;59.79;102738.56;5077568;28;8816;-55
2021/01/13 07:12:19;;;;;;;;;18.00;17.00;20.10;79.80;;;19.21;59.83;102736.06;5081615;28;8855;-51
2021/01/13 07:14:58;;;;;;;;;14.00;13.75;20.10;79.70;;;19.16;58.86;102741.78;5080192;28;8841;-48
2021/01/13 07:17:26;;;;;;;;;14.50;13.50;20.20;79.30;;;19.14;59.50;102749.06;5087302;28;8786;-49
2021/01/13 07:19:56;;;;;;;;;13.50;13.50;20.00;79.20;;;19.12;59.48;102756.34;5080872;28;8782;-54
2021/01/13 07:22:25;;;;;;;;;8.25;7.50;20.00;79.10;;;19.12;59.20;102777.78;5080434;28;8813;-53
2021/01/13 07:24:54;;;;;;;;;13.75;12.25;20.10;79.10;;;19.09;59.69;102775.31;5086168;28;9050;-55
2021/01/13 07:27:22;;;;;;;;;14.00;13.00;20.00;79.00;;;19.06;59.55;102760.31;5081244;28;9536;-52
2021/01/13 07:29:50;;;;;;;;;12.00;11.25;19.80;79.00;;;19.04;59.75;102756.88;5091575;28;8792;-55
2021/01/13 07:32:31;;;;;;;;;12.00;11.00;20.00;79.30;;;19.02;60.05;102766.84;5093065;28;8779;-54
2021/01/13 07:35:07;;;;;;;;;11.00;10.50;20.10;79.40;;;19.01;60.06;102764.31;5076931;28;8794;-53
2021/01/13 07:37:59;;;;;;;;;10.00;8.50;20.00;79.20;;;18.98;59.90;102770.72;5077725;28;8875;-51
2021/01/13 07:40:28;;;;;;;;;10.50;10.25;20.00;79.20;;;18.97;60.05;102763.63;5060844;28;8896;-52
2021/01/13 07:43:58;;;;;;;;;11.75;11.00;20.00;79.30;;;18.94;60.17;102765.69;5083281;28;8804;-53
2021/01/13 07:46:33;;;;;;;;;8.50;8.50;19.90;79.40;;;18.92;60.29;102768.47;5071833;28;8839;-52
2021/01/13 07:49:40;;;;;;;;;11.25;9.75;19.90;79.30;;;18.91;60.42;102776.63;5075805;28;9494;-50
2021/01/13 07:52:10;;;;;;;;;13.50;11.00;20.10;79.40;;;18.90;60.67;102782.91;5074621;28;8819;-51
2021/01/13 07:54:38;;;;;;;;;12.50;12.00;20.00;79.40;;;18.87;60.71;102786.66;5085011;28;8826;-53
2021/01/13 07:57:07;;;;;;;;;9.50;9.50;20.10;79.40;;;18.85;60.62;102794.84;5089043;28;8863;-52
2021/01/13 07:59:45;;;;;;;;;10.25;9.50;20.10;79.40;;;18.84;60.68;102800.28;5084199;28;8840;-50
2021/01/13 08:02:58;;;;;;;;;11.50;11.00;19.90;79.40;;;18.81;60.66;102796.00;5092061;28;8796;-50
2021/01/13 08:06:24;;;;;;;;;12.00;11.25;20.00;79.30;;;18.80;60.90;102786.25;5084416;28;8816;-54
2021/01/13 08:09:10;;;;;;;;;11.75;10.25;20.00;79.30;;;18.78;60.82;102790.84;5086711;28;8800;-54
2021/01/13 08:12:10;;;;;;;;;10.25;10.25;19.80;79.20;;;18.77;60.68;102783.78;5090511;28;8852;-52
2021/01/13 08:15:13;;;;;;;;;9.25;9.25;19.80;79.40;;;18.77;60.75;102788.28;5083562;28;9562;-50
2021/01/13 08:18:34;;;;;;;;;9.50;8.00;19.80;79.40;;;18.74;60.72;102789.31;5087516;28;8795;-50
2021/01/13 08:21:28;;;;;;;;;12.50;11.50;19.90;79.30;;;18.73;60.97;102794.78;5012790;28;8796;-53
2021/01/13 08:24:24;;;;;;;;;10.75;10.00;19.70;79.20;;;18.71;61.04;102786.00;5074574;28;8802;-54
2021/01/13 08:26:52;;;;;;;;;10.75;10.75;19.90;79.50;;;18.69;60.92;102779.88;5088847;28;8776;-55
2021/01/13 08:29:22;;;;;;;;;7.50;7.00;19.70;79.40;;;18.68;60.85;102772.84;5090318;28;8791;-52
2021/01/13 08:32:09;;;;;;;;;9.25;9.25;19.80;79.20;;;18.66;61.15;102767.56;5086059;28;8756;-54
2021/01/13 08:34:50;;;;;;;;;8.00;8.00;19.90;79.20;;;18.65;61.00;102760.50;5081249;28;8825;-51
2021/01/13 08:37:17;;;;;;;;;8.75;8.75;19.90;79.50;;;18.65;61.48;102749.81;5089506;28;8801;-55
2021/01/13 08:39:44;;;;;;;;;8.25;7.00;19.80;80.20;;;18.66;61.63;102755.03;5083263;28;8782;-55
2021/01/13 08:42:29;;;;;;;;;7.00;7.00;20.00;80.20;;;18.66;61.67;102743.47;5079787;28;8752;-55
2021/01/13 08:44:57;;;;;;;;;8.25;7.50;19.70;80.20;;;18.65;61.93;102739.94;5079892;28;8790;-54
2021/01/13 08:47:26;;;;;;;;;10.50;9.25;19.80;80.20;;;18.65;61.61;102739.94;5084122;28;8831;-54
2021/01/13 08:50:12;;;;;;;;;7.25;7.25;19.80;80.30;;;18.65;61.51;102736.41;5083255;28;8801;-54
2021/01/13 08:52:48;;;;;;;;;10.00;7.25;19.90;79.80;;;18.65;61.73;102739.09;5078923;28;8820;-51
2021/01/13 08:55:16;;;;;;;;;8.00;7.50;19.90;79.70;;;18.65;61.97;102736.41;5079438;28;8778;-52
2021/01/13 08:58:03;;;;;;;;;9.25;7.75;19.80;80.30;;;18.64;61.85;102729.34;5091215;28;8887;-53
2021/01/13 09:00:32;;;;;;;;;8.25;7.50;19.90;79.90;;;18.65;61.58;102715.84;5066306;28;8768;-55
2021/01/13 09:03:22;;;;;;;;;11.25;10.25;19.90;79.70;;;18.64;61.54;102710.59;5075557;28;8792;-55
2021/01/13 09:05:49;;;;;;;;;8.50;7.50;19.90;79.60;;;18.64;61.67;102699.88;5089116;28;8795;-54
2021/01/13 09:08:30;;;;;;;;;8.75;8.00;19.90;79.70;;;18.61;61.71;102698.28;5075980;28;8825;-53
2021/01/13 09:10:57;;;;;;;;;7.25;7.25;19.80;79.70;;;18.60;61.54;102718.00;5078669;28;8783;-52
2021/01/13 09:13:32;;;;;;;;;14.00;9.75;19.70;79.50;;;18.61;61.80;102711.66;5086642;28;8814;-55
2021/01/13 09:16:22;;;;;;;;;8.75;8.25;19.80;79.50;;;18.60;61.88;102727.84;5096488;28;8789;-54
2021/01/13 09:19:06;;;;;;;;;7.50;6.25;19.80;79.50;;;18.60;61.82;102727.84;5092871;28;8796;-55
2021/01/13 09:21:38;;;;;;;;;7.75;6.50;20.00;79.60;;;18.60;61.56;102734.06;5081785;28;8883;-54
2021/01/13 09:24:08;;;;;;;;;9.25;9.25;19.70;79.40;;;18.60;61.62;102726.03;5080046;28;8800;-52
2021/01/13 09:26:39;;;;;;;;;5.50;5.50;19.80;79.60;;;18.57;61.87;102707.50;5086029;28;8808;-54
2021/01/13 09:29:10;;;;;;;;;9.75;8.25;19.80;79.60;;;18.57;61.81;102696.81;5072395;28;8799;-55
2021/01/13 09:31:39;;;;;;;;;6.50;6.50;19.80;79.60;;;18.55;61.67;102696.03;5087971;28;8778;-51
2021/01/13 09:34:07;;;;;;;;;9.50;9.50;19.80;79.60;;;18.55;61.70;102698.72;5084215;28;8816;-54
2021/01/13 09:36:59;;;;;;;;;8.50;8.00;19.70;79.60;;;18.55;61.46;102700.56;5094317;28;8802;-55
2021/01/13 09:39:38;;;;;;;;;6.75;6.00;19.60;79.50;;;18.56;61.72;102702.25;5094316;28;8780;-52
2021/01/13 09:42:07;;;;;;;;;9.75;8.75;19.90;79.70;;;18.54;61.64;102720.22;5094746;28;8780;-51
2021/01/13 09:44:37;;;;;;;;;7.75;7.00;19.80;79.60;;;18.51;61.53;102702.56;5074293;28;9549;-55
2021/01/13 09:47:27;;;;;;;;;6.00;6.00;19.90;79.60;;;18.52;61.71;102706.09;5083183;28;8818;-55
2021/01/13 09:49:57;;;;;;;;;6.75;6.75;19.90;79.60;;;18.50;61.57;102695.50;5093484;28;8799;-54
2021/01/13 09:52:39;;;;;;;;;9.25;7.75;19.60;79.40;;;18.50;61.38;102686.63;5082379;28;8813;-52
2021/01/13 09:55:09;;;;;;;;;6.50;6.00;19.70;79.40;;;18.49;61.55;102683.06;5074212;28;8785;-53
2021/01/13 09:57:37;;;;;;;;;6.00;6.00;19.80;79.50;;;18.49;61.49;102682.22;5073927;28;8790;-52
2021/01/13 10:00:14;;;;;;;;;6.00;6.00;19.90;79.50;;;18.48;61.62;102685.88;5086684;28;8864;-53
2021/01/13 10:02:46;;;;;;;;;5.75;5.75;19.50;79.40;;;18.47;61.68;102694.84;5079427;28;8772;-52
2021/01/13 10:05:14;;;;;;;;;9.00;7.75;19.70;79.50;;;18.46;61.63;102693.16;5093846;28;9492;-54
2021/01/13 10:07:41;;;;;;;;;4.25;4.00;19.70;79.40;;;18.46;61.70;102687.78;5079537;28;8770;-53
2021/01/13 10:10:09;;;;;;;;;7.25;7.25;19.60;79.30;;;18.44;61.48;102691.44;5073631;28;8857;-51
2021/01/13 10:12:49;;;;;;;;;7.25;7.25;19.60;79.30;;;18.44;61.35;102698.59;5075665;28;8807;-55
2021/01/13 10:15:17;;;;;;;;;6.50;6.25;19.50;79.30;;;18.43;61.45;102696.88;5073573;28;8794;-54
2021/01/13 10:17:44;;;;;;;;;4.75;4.75;19.60;79.30;;;18.42;61.39;102692.50;5073974;28;8802;-53
2021/01/13 10:20:24;;;;;;;;;4.50;4.50;19.60;79.40;;;18.42;61.45;102701.41;5077224;28;8818;-53
2021/01/13 10:22:52;;;;;;;;;7.50;5.75;19.60;79.40;;;18.39;61.59;102693.59;5089504;28;8778;-54
2021/01/13 10:25:46;;;;;;;;;7.25;7.25;19.60;79.50;;;18.39;61.64;102698.94;5081371;28;8902;-54
2021/01/13 10:28:14;;;;;;;;;5.50;5.00;19.60;79.50;;;18.40;61.39;102689.09;5085867;28;8928;-52
2021/01/13 10:30:41;;;;;;;;;6.50;6.50;19.50;79.60;;;18.38;61.49;102672.28;5059373;28;8896;-53
2021/01/13 10:33:09;;;;;;;;;7.00;6.75;19.50;79.40;;;18.38;61.53;102670.44;5089319;28;9064;-51
2021/01/13 10:35:40;;;;;;;;;6.50;5.75;19.50;79.60;;;18.36;61.52;102661.66;5091858;28;8792;-53
2021/01/13 10:38:08;;;;;;;;;4.75;4.75;19.50;79.60;;;18.36;61.35;102663.47;5081107;28;8820;-53
2021/01/13 10:40:35;;;;;;;;;4.75;4.75;19.30;79.50;;;18.35;61.31;102659.97;5093475;28;8878;-55
2021/01/13 10:43:11;;;;;;;;;5.00;5.00;19.50;79.50;;;18.35;61.67;102659.97;5079844;28;8880;-53
2021/01/13 10:45:41;;;;;;;;;5.50;5.50;19.40;79.50;;;18.35;61.47;102659.97;5092820;28;8899;-53
2021/01/13 10:48:09;;;;;;;;;5.00;4.50;19.70;79.70;;;18.33;61.53;102661.88;5076168;28;8813;-53
2021/01/13 10:50:45;;;;;;;;;6.00;6.00;19.50;79.40;;;18.32;61.42;102665.53;5084144;28;9546;-55